Time;durP1;ratioP1;P1;durP2;ratioP2;P2;SDS_P1;SDS_P2;PMS_P1;PMS_P2;Temp;Humidity;BMP_temperature;BMP_pressure;BME280_temperature;BME280_humidity;BME280_pressure;Samples;Min_cycle;Max_cycle;Signal;HPM_P1;HPM_P2
2020/12/30 00:00:09;;;;;;;13.18;5.22;;;;;;;;;;5093409;28;20469;-75
2020/12/30 00:02:37;;;;;;;7.18;5.07;;;;;;;;;;5093339;28;20455;-75
2020/12/30 00:05:10;;;;;;;10.23;6.15;;;;;;;;;;5091393;28;20020;-74
2020/12/30 00:07:39;;;;;;;12.85;5.40;;;;;;;;;;5093390;28;20202;-74
2020/12/30 00:10:06;;;;;;;7.22;4.95;;;;;;;;;;5093222;28;20040;-74
2020/12/30 00:12:33;;;;;;;9.48;4.93;;;;;;;;;;5093348;28;20089;-74
2020/12/30 00:14:58;;;;;;;7.03;4.72;;;;;;;;;;5093326;28;20036;-74
2020/12/30 00:17:24;;;;;;;7.68;4.28;;;;;;;;;;5093045;28;20120;-74
2020/12/30 00:19:49;;;;;;;6.78;4.40;;;;;;;;;;5093268;28;20530;-74
2020/12/30 00:22:15;;;;;;;8.80;4.32;;;;;;;;;;5092370;28;20028;-74
2020/12/30 00:24:40;;;;;;;11.77;5.38;;;;;;;;;;5093288;28;20110;-74
2020/12/30 00:27:06;;;;;;;8.25;4.57;;;;;;;;;;5091709;28;20036;-74
2020/12/30 00:29:31;;;;;;;7.63;4.40;;;;;;;;;;5093241;28;20032;-74
2020/12/30 00:31:57;;;;;;;7.25;4.43;;;;;;;;;;5093266;28;20446;-74
2020/12/30 00:34:23;;;;;;;6.63;4.80;;;;;;;;;;5095364;28;20024;-74
2020/12/30 00:36:49;;;;;;;7.20;4.68;;;;;;;;;;5096833;28;20446;-74
2020/12/30 00:39:14;;;;;;;6.93;4.10;;;;;;;;;;5097136;28;20032;-74
2020/12/30 00:41:40;;;;;;;8.35;4.75;;;;;;;;;;5096971;28;20036;-74
2020/12/30 00:44:06;;;;;;;8.55;5.18;;;;;;;;;;5097073;28;20044;-74
2020/12/30 00:46:32;;;;;;;13.43;5.78;;;;;;;;;;5095759;28;20094;-74
2020/12/30 00:48:57;;;;;;;13.40;6.10;;;;;;;;;;5094730;28;20070;-74
2020/12/30 00:51:23;;;;;;;9.32;4.85;;;;;;;;;;5095782;28;20040;-74
2020/12/30 00:53:49;;;;;;;7.50;4.75;;;;;;;;;;5095710;28;20042;-74
2020/12/30 00:56:14;;;;;;;8.60;4.75;;;;;;;;;;5095443;28;20098;-74
2020/12/30 00:58:40;;;;;;;7.95;4.38;;;;;;;;;;5096740;28;20050;-74
2020/12/30 01:01:10;;;;;;;23.17;5.35;;;;;;;;;;5095501;28;20032;-74
2020/12/30 01:03:54;;;;;;;8.63;4.88;;;;;;;;;;5097008;28;20043;-74
2020/12/30 01:06:19;;;;;;;9.75;4.80;;;;;;;;;;5096646;28;20028;-74
2020/12/30 01:08:45;;;;;;;7.53;4.63;;;;;;;;;;5096393;28;20040;-74
2020/12/30 01:11:10;;;;;;;7.90;4.18;;;;;;;;;;5096423;28;20047;-74
2020/12/30 01:13:35;;;;;;;11.20;4.90;;;;;;;;;;5096458;28;20043;-74
2020/12/30 01:16:02;;;;;;;8.35;3.97;;;;;;;;;;5096505;28;20047;-74
2020/12/30 01:18:28;;;;;;;7.78;3.90;;;;;;;;;;5095496;28;20065;-74
2020/12/30 01:21:00;;;;;;;9.07;3.97;;;;;;;;;;5096419;28;20127;-74
2020/12/30 01:23:25;;;;;;;8.25;3.70;;;;;;;;;;5096359;28;20096;-74
2020/12/30 01:25:55;;;;;;;5.28;3.67;;;;;;;;;;5096281;28;20040;-74
2020/12/30 01:28:21;;;;;;;7.63;4.50;;;;;;;;;;5096076;28;20040;-74
2020/12/30 01:30:47;;;;;;;10.82;4.43;;;;;;;;;;5095332;28;20051;-74
2020/12/30 01:33:13;;;;;;;10.43;4.78;;;;;;;;;;5096258;28;20131;-74
2020/12/30 01:35:38;;;;;;;9.55;5.13;;;;;;;;;;5096163;28;20072;-74
2020/12/30 01:38:04;;;;;;;7.30;4.07;;;;;;;;;;5095987;28;20114;-74
2020/12/30 01:40:29;;;;;;;9.00;4.80;;;;;;;;;;5095923;28;20123;-74
2020/12/30 01:42:54;;;;;;;7.45;4.38;;;;;;;;;;5095953;28;20090;-74
2020/12/30 01:45:19;;;;;;;7.13;4.45;;;;;;;;;;5093979;28;20063;-74
2020/12/30 01:47:48;;;;;;;9.65;5.93;;;;;;;;;;5095750;28;20040;-74
2020/12/30 01:50:14;;;;;;;11.70;6.28;;;;;;;;;;5094915;28;20060;-74
2020/12/30 01:52:41;;;;;;;14.02;6.80;;;;;;;;;;5095524;28;20036;-74
2020/12/30 01:55:07;;;;;;;9.40;5.35;;;;;;;;;;5095603;28;20506;-74
2020/12/30 01:57:34;;;;;;;12.02;5.95;;;;;;;;;;5095518;28;20042;-74
2020/12/30 01:59:59;;;;;;;10.38;5.45;;;;;;;;;;5095649;28;20573;-74
2020/12/30 02:02:28;;;;;;;11.00;5.95;;;;;;;;;;5095646;28;20071;-74
2020/12/30 02:04:56;;;;;;;13.23;5.85;;;;;;;;;;5095620;28;20075;-74
2020/12/30 02:07:25;;;;;;;12.02;5.97;;;;;;;;;;5095199;28;20054;-74
2020/12/30 02:09:51;;;;;;;11.88;5.82;;;;;;;;;;5095373;28;20070;-74
2020/12/30 02:12:17;;;;;;;14.07;6.43;;;;;;;;;;5095430;28;20127;-74
2020/12/30 02:14:43;;;;;;;11.25;5.22;;;;;;;;;;5095229;28;20063;-74
2020/12/30 02:17:12;;;;;;;9.70;5.45;;;;;;;;;;5094495;28;20145;-74
2020/12/30 02:19:38;;;;;;;7.82;5.38;;;;;;;;;;5093881;28;20043;-74
2020/12/30 02:22:05;;;;;;;10.98;5.90;;;;;;;;;;5093970;28;20032;-74
2020/12/30 02:24:31;;;;;;;7.80;5.10;;;;;;;;;;5095154;28;20123;-74
2020/12/30 02:26:59;;;;;;;8.50;5.00;;;;;;;;;;5095166;28;20028;-74
2020/12/30 02:29:24;;;;;;;12.05;5.95;;;;;;;;;;5093803;28;20385;-74
2020/12/30 02:31:50;;;;;;;9.73;4.75;;;;;;;;;;5095038;28;20031;-74
2020/12/30 02:34:16;;;;;;;7.38;4.38;;;;;;;;;;5094823;28;20538;-74
2020/12/30 02:36:41;;;;;;;8.65;5.15;;;;;;;;;;5094697;28;20048;-74
2020/12/30 02:39:07;;;;;;;8.20;5.05;;;;;;;;;;5094859;28;20042;-74
2020/12/30 02:41:32;;;;;;;7.70;4.20;;;;;;;;;;5093925;28;20032;-74
2020/12/30 02:44:03;;;;;;;12.85;4.70;;;;;;;;;;5094759;28;20427;-74
2020/12/30 02:46:28;;;;;;;5.95;4.03;;;;;;;;;;5094417;28;20091;-74
2020/12/30 02:48:54;;;;;;;9.75;5.30;;;;;;;;;;5094598;28;20126;-74
2020/12/30 02:51:19;;;;;;;14.10;5.22;;;;;;;;;;5094584;28;20044;-74
2020/12/30 02:53:45;;;;;;;6.28;3.95;;;;;;;;;;5094515;28;20116;-73
2020/12/30 02:56:10;;;;;;;13.02;6.50;;;;;;;;;;5093234;28;20072;-73
2020/12/30 02:58:36;;;;;;;9.85;5.78;;;;;;;;;;5094523;28;20090;-74
2020/12/30 03:01:01;;;;;;;9.50;5.07;;;;;;;;;;5093568;28;20036;-74
2020/12/30 03:03:27;;;;;;;12.63;5.80;;;;;;;;;;5094396;28;20032;-74
2020/12/30 03:05:53;;;;;;;17.13;5.03;;;;;;;;;;5094252;28;20198;-74
2020/12/30 03:08:19;;;;;;;9.23;4.85;;;;;;;;;;5094207;28;20062;-74
2020/12/30 03:10:44;;;;;;;9.40;6.15;;;;;;;;;;5094325;28;20040;-74
2020/12/30 03:13:09;;;;;;;9.38;4.95;;;;;;;;;;5094316;28;20358;-74
2020/12/30 03:15:35;;;;;;;10.27;4.53;;;;;;;;;;5093359;28;20466;-74
2020/12/30 03:18:00;;;;;;;7.03;4.45;;;;;;;;;;5094042;28;20039;-74
2020/12/30 03:20:26;;;;;;;7.43;4.70;;;;;;;;;;5094113;28;20039;-74
2020/12/30 03:22:51;;;;;;;7.50;5.45;;;;;;;;;;5094203;28;20505;-74
2020/12/30 03:25:17;;;;;;;8.13;4.70;;;;;;;;;;5094025;28;20579;-74
2020/12/30 03:27:42;;;;;;;10.82;5.20;;;;;;;;;;5093941;28;20035;-74
2020/12/30 03:30:07;;;;;;;10.73;5.18;;;;;;;;;;5093766;28;20524;-74
2020/12/30 03:32:33;;;;;;;10.98;5.43;;;;;;;;;;5094013;28;20032;-74
2020/12/30 03:34:58;;;;;;;8.88;4.90;;;;;;;;;;5093705;28;20036;-74
2020/12/30 03:37:23;;;;;;;10.20;4.80;;;;;;;;;;5093669;28;20059;-74
2020/12/30 03:39:49;;;;;;;8.20;4.40;;;;;;;;;;5093885;28;20063;-74
2020/12/30 03:42:15;;;;;;;8.60;4.22;;;;;;;;;;5093784;28;20174;-74
2020/12/30 03:44:40;;;;;;;6.65;3.78;;;;;;;;;;5092396;28;20515;-74
2020/12/30 03:47:06;;;;;;;9.75;5.70;;;;;;;;;;5093695;28;20040;-74
2020/12/30 03:49:33;;;;;;;9.55;5.63;;;;;;;;;;5093547;28;20131;-74
2020/12/30 03:51:59;;;;;;;12.00;4.10;;;;;;;;;;5093580;28;20036;-74
2020/12/30 03:54:31;;;;;;;6.85;4.07;;;;;;;;;;5091435;28;20035;-74
2020/12/30 03:56:56;;;;;;;6.15;4.20;;;;;;;;;;5093252;28;20028;-74
2020/12/30 03:59:22;;;;;;;6.03;3.92;;;;;;;;;;5093510;28;20043;-74
2020/12/30 04:01:47;;;;;;;7.88;4.72;;;;;;;;;;5093364;28;20047;-74
2020/12/30 04:04:13;;;;;;;9.98;4.50;;;;;;;;;;5091024;28;20031;-74
2020/12/30 04:06:43;;;;;;;7.70;4.85;;;;;;;;;;5093454;28;20036;-74
2020/12/30 04:09:09;;;;;;;8.00;4.78;;;;;;;;;;5092804;28;20115;-74
2020/12/30 04:11:34;;;;;;;11.65;5.55;;;;;;;;;;5093346;28;20466;-74
2020/12/30 04:14:00;;;;;;;8.55;5.05;;;;;;;;;;5092419;28;20035;-74
2020/12/30 04:16:25;;;;;;;8.18;4.18;;;;;;;;;;5093190;28;20040;-74
2020/12/30 04:18:51;;;;;;;6.88;4.00;;;;;;;;;;5090924;28;20028;-74
2020/12/30 04:21:24;;;;;;;6.30;3.92;;;;;;;;;;5091944;28;20032;-74
2020/12/30 04:23:50;;;;;;;5.07;3.90;;;;;;;;;;5093270;28;20036;-74
2020/12/30 04:26:18;;;;;;;7.05;3.83;;;;;;;;;;5093291;28;20032;-74
2020/12/30 04:28:44;;;;;;;6.80;4.22;;;;;;;;;;5093065;28;20039;-74
2020/12/30 04:31:10;;;;;;;6.22;4.03;;;;;;;;;;5091241;28;20032;-74
2020/12/30 04:33:37;;;;;;;5.45;3.63;;;;;;;;;;5093209;28;20040;-74
2020/12/30 04:36:06;;;;;;;7.22;4.13;;;;;;;;;;5093068;28;20130;-74
2020/12/30 04:38:32;;;;;;;5.18;3.47;;;;;;;;;;5093026;28;20078;-74
2020/12/30 04:41:03;;;;;;;6.28;3.67;;;;;;;;;;5092109;28;20024;-74
2020/12/30 04:43:30;;;;;;;5.95;3.63;;;;;;;;;;5092798;28;20048;-74
2020/12/30 04:45:58;;;;;;;5.95;3.47;;;;;;;;;;5091789;28;20446;-74
2020/12/30 04:48:25;;;;;;;5.00;3.55;;;;;;;;;;5092884;28;20128;-74
2020/12/30 04:50:52;;;;;;;5.80;3.95;;;;;;;;;;5092242;28;20043;-74
2020/12/30 04:53:21;;;;;;;6.93;3.90;;;;;;;;;;5093024;28;20055;-74
2020/12/30 04:55:48;;;;;;;8.07;4.00;;;;;;;;;;5092879;28;20459;-74
2020/12/30 04:58:15;;;;;;;5.95;3.80;;;;;;;;;;5092741;28;20032;-74
2020/12/30 05:00:42;;;;;;;8.30;4.55;;;;;;;;;;5091926;28;20040;-74
2020/12/30 05:03:10;;;;;;;7.40;3.85;;;;;;;;;;5092165;28;20024;-74
2020/12/30 05:05:40;;;;;;;4.60;3.35;;;;;;;;;;5093036;28;20043;-74
2020/12/30 05:08:14;;;;;;;5.50;3.40;;;;;;;;;;5091456;28;20039;-74
2020/12/30 05:10:42;;;;;;;5.07;3.15;;;;;;;;;;5092922;28;20071;-74
2020/12/30 05:13:08;;;;;;;6.05;3.67;;;;;;;;;;5092631;28;20036;-74
2020/12/30 05:15:34;;;;;;;5.90;3.30;;;;;;;;;;5092782;28;20032;-74
2020/12/30 05:18:06;;;;;;;5.47;3.53;;;;;;;;;;5091882;28;20063;-74
2020/12/30 05:20:37;;;;;;;5.82;3.40;;;;;;;;;;5093514;28;20032;-74
2020/12/30 05:23:04;;;;;;;6.50;3.47;;;;;;;;;;5094967;28;20474;-74
2020/12/30 05:25:34;;;;;;;6.55;3.63;;;;;;;;;;5096250;28;20028;-74
2020/12/30 05:28:01;;;;;;;6.00;3.75;;;;;;;;;;5096089;28;20042;-74
2020/12/30 05:30:28;;;;;;;5.18;4.10;;;;;;;;;;5095526;28;20059;-74
2020/12/30 05:32:54;;;;;;;7.60;4.05;;;;;;;;;;5096112;28;20511;-74
2020/12/30 05:35:20;;;;;;;5.03;3.50;;;;;;;;;;5096148;28;20040;-74
2020/12/30 05:37:47;;;;;;;8.68;3.60;;;;;;;;;;5096042;28;20470;-74
2020/12/30 05:40:26;;;;;;;5.65;3.25;;;;;;;;;;5096021;28;20508;-74
2020/12/30 05:42:53;;;;;;;5.90;3.88;;;;;;;;;;5095769;28;20040;-74
2020/12/30 05:45:24;;;;;;;6.35;4.28;;;;;;;;;;5095353;28;20024;-74
2020/12/30 05:47:50;;;;;;;7.35;3.63;;;;;;;;;;5095882;28;20036;-74
2020/12/30 05:50:23;;;;;;;5.10;3.72;;;;;;;;;;5095593;28;20058;-74
2020/12/30 05:52:49;;;;;;;8.95;4.40;;;;;;;;;;5095763;28;20027;-74
2020/12/30 05:55:15;;;;;;;7.32;4.47;;;;;;;;;;5095665;28;20078;-74
2020/12/30 05:57:41;;;;;;;10.45;5.78;;;;;;;;;;5095702;28;20036;-74
2020/12/30 06:00:09;;;;;;;9.85;5.50;;;;;;;;;;5095733;28;20036;-74
2020/12/30 06:02:42;;;;;;;12.80;5.75;;;;;;;;;;5095677;28;20076;-74
2020/12/30 06:05:08;;;;;;;7.03;4.40;;;;;;;;;;5095442;28;20039;-74
2020/12/30 06:07:38;;;;;;;6.15;4.20;;;;;;;;;;5095469;28;20036;-74
2020/12/30 06:10:05;;;;;;;8.55;3.80;;;;;;;;;;5095622;28;20480;-74
2020/12/30 06:12:37;;;;;;;6.22;3.55;;;;;;;;;;5095498;28;20077;-74
2020/12/30 06:15:06;;;;;;;6.32;4.10;;;;;;;;;;5095122;28;20040;-74
2020/12/30 06:17:31;;;;;;;4.68;3.90;;;;;;;;;;5095141;28;20040;-74
2020/12/30 06:19:58;;;;;;;7.40;4.32;;;;;;;;;;5094123;28;20580;-74
2020/12/30 06:22:24;;;;;;;9.68;4.80;;;;;;;;;;5095410;28;20070;-74
2020/12/30 06:24:56;;;;;;;16.17;6.35;;;;;;;;;;5095059;28;20485;-74
2020/12/30 06:27:24;;;;;;;15.85;7.95;;;;;;;;;;5095202;28;20046;-73
2020/12/30 06:29:53;;;;;;;12.45;6.18;;;;;;;;;;5094983;28;20046;-74
2020/12/30 06:32:34;;;;;;;9.55;4.72;;;;;;;;;;5094606;28;20040;-74
2020/12/30 06:35:01;;;;;;;7.18;5.07;;;;;;;;;;5094151;28;20043;-74
2020/12/30 06:37:28;;;;;;;9.57;5.70;;;;;;;;;;5095029;28;20354;-74
2020/12/30 06:40:16;;;;;;;9.05;5.78;;;;;;;;;;5093566;28;20081;-74
2020/12/30 06:42:41;;;;;;;8.20;5.57;;;;;;;;;;5074421;28;20066;-74
2020/12/30 06:45:07;;;;;;;11.85;6.03;;;;;;;;;;5074578;28;20025;-74
2020/12/30 06:47:59;;;;;;;7.38;5.00;;;;;;;;;;5074451;28;20478;-76
2020/12/30 06:50:26;;;;;;;8.25;5.15;;;;;;;;;;5064231;28;20056;-74
2020/12/30 06:52:51;;;;;;;13.15;6.40;;;;;;;;;;5074298;28;20041;-74
2020/12/30 06:55:16;;;;;;;12.45;7.43;;;;;;;;;;5074056;28;20082;-74
2020/12/30 06:57:44;;;;;;;12.18;7.07;;;;;;;;;;5074216;28;20047;-74
2020/12/30 07:00:31;;;;;;;9.48;5.72;;;;;;;;;;5074301;28;20036;-73
2020/12/30 07:03:16;;;;;;;10.02;5.85;;;;;;;;;;5074081;28;20079;-73
2020/12/30 07:05:43;;;;;;;10.73;5.88;;;;;;;;;;5074170;28;20068;-74
2020/12/30 07:08:09;;;;;;;11.65;5.45;;;;;;;;;;5073962;28;20036;-73
2020/12/30 07:10:44;;;;;;;7.53;5.30;;;;;;;;;;5077686;28;20101;-73
2020/12/30 07:13:25;;;;;;;7.80;5.70;;;;;;;;;;5094369;28;20436;-72
2020/12/30 07:16:14;;;;;;;6.93;4.88;;;;;;;;;;5094157;28;20040;-74
2020/12/30 07:18:46;;;;;;;9.77;4.93;;;;;;;;;;5094074;28;20043;-74
2020/12/30 07:21:13;;;;;;;7.50;5.40;;;;;;;;;;5093831;28;20039;-73
2020/12/30 07:23:39;;;;;;;13.77;5.80;;;;;;;;;;5094041;28;20039;-74
2020/12/30 07:26:04;;;;;;;10.48;6.03;;;;;;;;;;5094057;28;20032;-75
2020/12/30 07:28:30;;;;;;;8.80;5.35;;;;;;;;;;5093090;28;20031;-74
2020/12/30 07:30:55;;;;;;;8.82;4.72;;;;;;;;;;5094098;28;20076;-74
2020/12/30 07:33:22;;;;;;;6.90;5.07;;;;;;;;;;5093954;28;20028;-75
2020/12/30 07:35:47;;;;;;;8.07;5.15;;;;;;;;;;5093838;28;20028;-74
2020/12/30 07:38:13;;;;;;;9.00;4.65;;;;;;;;;;5093802;28;20393;-76
2020/12/30 07:40:39;;;;;;;9.30;5.30;;;;;;;;;;5093350;28;20032;-76
2020/12/30 07:43:05;;;;;;;8.98;5.03;;;;;;;;;;5092734;28;20519;-76
2020/12/30 07:45:30;;;;;;;6.93;4.65;;;;;;;;;;5092474;28;20047;-74
2020/12/30 07:47:56;;;;;;;13.27;4.95;;;;;;;;;;5092670;28;20032;-74
2020/12/30 07:50:21;;;;;;;7.95;5.40;;;;;;;;;;5093708;28;20028;-74
2020/12/30 07:52:51;;;;;;;9.05;5.28;;;;;;;;;;5093506;28;20405;-75
2020/12/30 07:55:26;;;;;;;8.13;5.43;;;;;;;;;;5092616;28;20043;-75
2020/12/30 07:57:55;;;;;;;12.52;5.88;;;;;;;;;;5093448;28;20031;-75
2020/12/30 08:00:20;;;;;;;9.98;5.38;;;;;;;;;;5093509;28;20085;-75
2020/12/30 08:02:45;;;;;;;11.30;6.25;;;;;;;;;;5093381;28;20432;-75
2020/12/30 08:05:11;;;;;;;9.60;6.15;;;;;;;;;;5093628;28;20122;-74
2020/12/30 08:07:36;;;;;;;12.02;6.13;;;;;;;;;;5092480;28;20042;-74
2020/12/30 08:10:02;;;;;;;9.00;5.45;;;;;;;;;;5093504;28;20036;-73
2020/12/30 08:12:27;;;;;;;9.30;5.43;;;;;;;;;;5075372;28;20049;-73
2020/12/30 08:14:53;;;;;;;7.35;4.90;;;;;;;;;;5093210;28;20039;-74
2020/12/30 08:17:21;;;;;;;7.22;5.13;;;;;;;;;;5092460;28;20381;-74
2020/12/30 08:19:48;;;;;;;10.57;5.07;;;;;;;;;;5093652;28;20503;-74
2020/12/30 08:22:39;;;;;;;10.50;6.20;;;;;;;;;;5093376;28;20028;-75
2020/12/30 08:25:13;;;;;;;7.07;4.95;;;;;;;;;;5093222;28;20093;-75
2020/12/30 08:27:42;;;;;;;8.48;5.93;;;;;;;;;;5092494;28;20115;-75
2020/12/30 08:30:08;;;;;;;14.52;10.15;;;;;;;;;;5092618;28;20036;-75
2020/12/30 08:32:33;;;;;;;17.55;10.32;;;;;;;;;;5092578;28;20044;-75
2020/12/30 08:35:10;;;;;;;14.13;8.93;;;;;;;;;;5092615;28;20036;-74
2020/12/30 08:37:38;;;;;;;10.63;6.95;;;;;;;;;;5091465;28;20028;-75
2020/12/30 08:40:03;;;;;;;10.93;6.47;;;;;;;;;;5091456;28;20031;-75
2020/12/30 08:42:45;;;;;;;10.45;6.70;;;;;;;;;;5091148;28;20562;-74
2020/12/30 08:45:12;;;;;;;10.00;6.47;;;;;;;;;;5092439;28;20040;-74
2020/12/30 08:47:39;;;;;;;10.70;7.10;;;;;;;;;;5092375;28;20136;-74
2020/12/30 08:50:08;;;;;;;9.38;6.50;;;;;;;;;;5092986;28;20039;-75
2020/12/30 08:52:43;;;;;;;11.50;8.02;;;;;;;;;;5092610;28;20028;-76
2020/12/30 08:55:10;;;;;;;19.60;11.85;;;;;;;;;;5083728;28;20493;-75
2020/12/30 08:57:35;;;;;;;24.73;14.23;;;;;;;;;;5086064;28;20040;-76
2020/12/30 09:00:17;;;;;;;19.83;12.43;;;;;;;;;;5086759;28;20025;-77
2020/12/30 09:02:43;;;;;;;17.50;10.32;;;;;;;;;;5087147;28;20190;-75
2020/12/30 09:05:09;;;;;;;15.00;9.55;;;;;;;;;;5083679;28;20512;-75
2020/12/30 09:07:36;;;;;;;14.07;8.68;;;;;;;;;;5082509;28;20044;-77
2020/12/30 09:10:11;;;;;;;11.27;8.00;;;;;;;;;;5079943;28;20028;-76
2020/12/30 09:12:39;;;;;;;10.85;7.63;;;;;;;;;;5089211;28;20032;-78
2020/12/30 09:15:06;;;;;;;12.65;6.18;;;;;;;;;;5093669;28;20039;-78
2020/12/30 09:17:32;;;;;;;13.38;8.48;;;;;;;;;;5077024;28;20083;-78
2020/12/30 09:20:10;;;;;;;21.13;12.57;;;;;;;;;;5074788;28;20058;-77
2020/12/30 09:22:35;;;;;;;15.73;10.48;;;;;;;;;;5076105;28;20394;-77
2020/12/30 09:25:01;;;;;;;16.85;11.45;;;;;;;;;;5075997;28;20037;-77
2020/12/30 09:27:26;;;;;;;14.48;10.55;;;;;;;;;;5075879;28;20055;-77
2020/12/30 09:30:14;;;;;;;17.25;9.77;;;;;;;;;;5075889;28;20032;-75
2020/12/30 09:32:42;;;;;;;13.52;7.97;;;;;;;;;;5075929;28;20383;-76
2020/12/30 09:35:13;;;;;;;18.75;8.07;;;;;;;;;;5075632;28;20474;-76
2020/12/30 09:37:39;;;;;;;12.23;7.57;;;;;;;;;;5076814;28;20040;-77
2020/12/30 09:40:12;;;;;;;9.50;6.72;;;;;;;;;;5096191;28;20070;-74
2020/12/30 09:42:40;;;;;;;12.07;8.20;;;;;;;;;;5095700;28;20032;-74
2020/12/30 09:45:08;;;;;;;18.05;10.90;;;;;;;;;;5095930;28;20168;-74
2020/12/30 09:47:38;;;;;;;17.25;11.85;;;;;;;;;;5095739;28;20131;-77
2020/12/30 09:50:10;;;;;;;22.05;14.13;;;;;;;;;;5095682;28;20043;-76
2020/12/30 09:52:40;;;;;;;19.63;12.15;;;;;;;;;;5095846;28;20460;-75
2020/12/30 09:55:07;;;;;;;17.63;12.10;;;;;;;;;;5094736;28;20036;-76
2020/12/30 09:57:33;;;;;;;17.25;11.25;;;;;;;;;;5095609;28;20064;-74
2020/12/30 09:59:59;;;;;;;19.70;12.13;;;;;;;;;;5095629;28;20028;-74
2020/12/30 10:02:26;;;;;;;15.45;10.48;;;;;;;;;;5095598;28;20402;-74
2020/12/30 10:04:51;;;;;;;13.90;9.45;;;;;;;;;;5095537;28;20043;-74
2020/12/30 10:07:17;;;;;;;15.35;9.57;;;;;;;;;;5093526;28;20024;-74
2020/12/30 10:09:42;;;;;;;14.65;10.20;;;;;;;;;;5083758;28;20040;-74
2020/12/30 10:12:07;;;;;;;15.75;11.10;;;;;;;;;;5086837;28;20028;-74
2020/12/30 10:14:33;;;;;;;19.55;11.25;;;;;;;;;;5095269;28;20550;-74
2020/12/30 10:16:58;;;;;;;15.15;9.95;;;;;;;;;;5095224;28;20455;-74
2020/12/30 10:19:24;;;;;;;15.32;10.02;;;;;;;;;;5095230;28;20035;-74
2020/12/30 10:21:49;;;;;;;16.85;10.27;;;;;;;;;;5094544;28;21504;-74
2020/12/30 10:24:15;;;;;;;14.55;8.93;;;;;;;;;;5095081;28;20032;-74
2020/12/30 10:26:40;;;;;;;17.35;11.18;;;;;;;;;;5095190;28;20063;-74
2020/12/30 10:29:06;;;;;;;17.05;10.77;;;;;;;;;;5095084;28;20380;-74
2020/12/30 10:31:31;;;;;;;22.13;10.77;;;;;;;;;;5095108;28;20043;-74
2020/12/30 10:33:56;;;;;;;16.83;10.30;;;;;;;;;;5095114;28;20032;-74
2020/12/30 10:36:26;;;;;;;19.05;10.75;;;;;;;;;;5094959;28;20081;-74
2020/12/30 10:38:52;;;;;;;15.57;10.20;;;;;;;;;;5094508;28;20176;-74
2020/12/30 10:41:17;;;;;;;14.55;8.95;;;;;;;;;;5094713;28;20114;-74
2020/12/30 10:43:44;;;;;;;16.25;9.73;;;;;;;;;;5094657;28;20040;-74
2020/12/30 10:46:16;;;;;;;27.73;17.60;;;;;;;;;;5094825;28;20032;-74
2020/12/30 10:48:46;;;;;;;21.40;13.80;;;;;;;;;;5094606;28;20036;-74
2020/12/30 10:51:13;;;;;;;16.75;10.30;;;;;;;;;;5093813;28;20036;-74
2020/12/30 10:53:38;;;;;;;14.13;9.15;;;;;;;;;;5094677;28;20190;-75
2020/12/30 10:56:04;;;;;;;11.80;7.80;;;;;;;;;;5093205;28;20503;-74
2020/12/30 10:58:30;;;;;;;12.27;8.18;;;;;;;;;;5094448;28;20460;-74
2020/12/30 11:00:56;;;;;;;13.70;6.32;;;;;;;;;;5094642;28;20558;-74
2020/12/30 11:03:21;;;;;;;9.70;6.72;;;;;;;;;;5093663;28;20515;-73
2020/12/30 11:05:47;;;;;;;7.55;5.45;;;;;;;;;;5094922;28;20024;-75
2020/12/30 11:08:14;;;;;;;9.95;6.70;;;;;;;;;;5094184;28;20031;-75
2020/12/30 11:10:40;;;;;;;9.63;5.95;;;;;;;;;;5094202;28;20040;-77
2020/12/30 11:13:05;;;;;;;8.38;5.70;;;;;;;;;;5094270;28;20035;-74
2020/12/30 11:15:30;;;;;;;7.25;4.93;;;;;;;;;;5094479;28;20043;-77
2020/12/30 11:17:56;;;;;;;5.93;3.97;;;;;;;;;;5093312;28;20020;-74
2020/12/30 11:20:21;;;;;;;5.28;3.72;;;;;;;;;;5094144;28;20028;-74
2020/12/30 11:22:46;;;;;;;5.72;4.32;;;;;;;;;;5094074;28;20405;-75
2020/12/30 11:25:12;;;;;;;5.07;3.75;;;;;;;;;;5094119;28;20054;-75
2020/12/30 11:27:37;;;;;;;4.15;3.20;;;;;;;;;;5094063;28;20043;-77
2020/12/30 11:30:03;;;;;;;4.13;3.25;;;;;;;;;;5093950;28;20127;-75
2020/12/30 11:32:28;;;;;;;5.10;4.15;;;;;;;;;;5093982;28;20043;-75
2020/12/30 11:34:53;;;;;;;3.97;3.17;;;;;;;;;;5093622;28;20040;-76
2020/12/30 11:37:19;;;;;;;4.65;3.72;;;;;;;;;;5093725;28;20063;-76
2020/12/30 11:39:44;;;;;;;4.85;3.55;;;;;;;;;;5093893;28;20067;-76
2020/12/30 11:42:10;;;;;;;3.78;3.00;;;;;;;;;;5093492;28;20115;-76
2020/12/30 11:44:35;;;;;;;4.93;3.47;;;;;;;;;;5094720;28;20048;-76
2020/12/30 11:47:01;;;;;;;4.68;3.42;;;;;;;;;;5093739;28;20068;-76
2020/12/30 11:49:27;;;;;;;5.38;3.30;;;;;;;;;;5093339;28;20084;-76
2020/12/30 11:51:53;;;;;;;3.65;3.20;;;;;;;;;;5093613;28;20039;-75
2020/12/30 11:54:18;;;;;;;5.13;3.65;;;;;;;;;;5093581;28;20039;-74
2020/12/30 11:56:43;;;;;;;4.35;2.75;;;;;;;;;;5093149;28;20076;-76
2020/12/30 11:59:09;;;;;;;4.93;3.47;;;;;;;;;;5093388;28;20123;-76
2020/12/30 12:01:34;;;;;;;3.75;2.80;;;;;;;;;;5093698;28;20044;-73
2020/12/30 12:04:00;;;;;;;3.47;2.95;;;;;;;;;;5092735;28;20035;-74
2020/12/30 12:06:27;;;;;;;4.40;3.33;;;;;;;;;;5093434;28;20525;-75
2020/12/30 12:08:52;;;;;;;5.55;3.53;;;;;;;;;;5074797;28;20059;-74
2020/12/30 12:11:18;;;;;;;5.47;3.10;;;;;;;;;;5093368;28;20075;-73
2020/12/30 12:13:43;;;;;;;6.78;3.28;;;;;;;;;;5093341;28;20358;-74
2020/12/30 12:16:11;;;;;;;3.85;2.80;;;;;;;;;;5092289;28;20039;-73
2020/12/30 12:18:36;;;;;;;3.83;2.83;;;;;;;;;;5093180;28;20039;-71
2020/12/30 12:21:03;;;;;;;3.47;2.75;;;;;;;;;;5093207;28;20040;-75
2020/12/30 12:23:28;;;;;;;4.53;3.70;;;;;;;;;;5093154;28;20035;-75
2020/12/30 12:25:53;;;;;;;6.18;3.28;;;;;;;;;;5093242;28;20024;-74
2020/12/30 12:28:36;;;;;;;4.63;3.20;;;;;;;;;;5091925;28;20042;-73
2020/12/30 12:31:01;;;;;;;4.15;3.15;;;;;;;;;;5096341;28;20074;-73
2020/12/30 12:33:27;;;;;;;3.72;2.70;;;;;;;;;;5097208;28;20055;-74
2020/12/30 12:35:52;;;;;;;3.95;2.85;;;;;;;;;;5097283;28;20514;-74
2020/12/30 12:38:17;;;;;;;3.95;3.15;;;;;;;;;;5096901;28;20036;-75
2020/12/30 12:40:43;;;;;;;3.90;2.88;;;;;;;;;;5096131;28;20489;-75
2020/12/30 12:43:08;;;;;;;4.03;2.92;;;;;;;;;;5096970;28;20044;-76
2020/12/30 12:45:33;;;;;;;3.85;2.92;;;;;;;;;;5097098;28;20040;-76
2020/12/30 12:47:59;;;;;;;4.68;3.03;;;;;;;;;;5096945;28;20127;-74
2020/12/30 12:50:24;;;;;;;6.95;3.65;;;;;;;;;;5096986;28;20051;-73
2020/12/30 12:52:50;;;;;;;3.45;2.78;;;;;;;;;;5095574;28;20032;-74
2020/12/30 12:55:15;;;;;;;4.47;3.25;;;;;;;;;;5096667;28;20023;-74
2020/12/30 12:57:40;;;;;;;5.38;3.28;;;;;;;;;;5097280;28;20389;-75
2020/12/30 13:00:06;;;;;;;4.65;3.08;;;;;;;;;;5095597;28;20028;-74
2020/12/30 13:02:31;;;;;;;4.28;3.30;;;;;;;;;;5078639;28;20035;-73
2020/12/30 13:04:57;;;;;;;4.95;2.95;;;;;;;;;;5095621;28;20489;-73
2020/12/30 13:07:22;;;;;;;5.55;3.33;;;;;;;;;;5095299;28;20043;-74
2020/12/30 13:09:47;;;;;;;5.78;3.10;;;;;;;;;;5096552;28;20050;-74
2020/12/30 13:12:14;;;;;;;3.45;2.70;;;;;;;;;;5096467;28;20047;-74
2020/12/30 13:14:40;;;;;;;3.75;3.08;;;;;;;;;;5096421;28;20523;-74
2020/12/30 13:17:05;;;;;;;3.97;3.15;;;;;;;;;;5096280;28;20028;-74
2020/12/30 13:19:31;;;;;;;4.35;3.35;;;;;;;;;;5096122;28;20408;-74
2020/12/30 13:21:56;;;;;;;3.95;3.00;;;;;;;;;;5095313;28;20057;-74
2020/12/30 13:24:21;;;;;;;5.25;3.33;;;;;;;;;;5096373;28;20792;-74
2020/12/30 13:26:48;;;;;;;4.00;3.28;;;;;;;;;;5095514;28;20024;-74
2020/12/30 13:29:13;;;;;;;4.25;3.03;;;;;;;;;;5096180;28;20386;-74
2020/12/30 13:31:38;;;;;;;5.68;3.33;;;;;;;;;;5096311;28;20039;-74
2020/12/30 13:34:04;;;;;;;4.72;3.53;;;;;;;;;;5095412;28;20040;-73
2020/12/30 13:36:29;;;;;;;5.93;3.45;;;;;;;;;;5095914;28;20036;-74
2020/12/30 13:38:55;;;;;;;5.18;3.42;;;;;;;;;;5096109;28;20080;-74
2020/12/30 13:41:22;;;;;;;4.70;3.10;;;;;;;;;;5094879;28;20529;-74
2020/12/30 13:43:47;;;;;;;5.82;3.22;;;;;;;;;;5095764;28;20560;-74
2020/12/30 13:46:13;;;;;;;3.65;2.78;;;;;;;;;;5096169;28;20157;-74
2020/12/30 13:48:40;;;;;;;5.75;3.33;;;;;;;;;;5093453;28;20081;-73
2020/12/30 13:51:05;;;;;;;3.63;2.75;;;;;;;;;;5095936;28;20040;-74
2020/12/30 13:53:31;;;;;;;6.78;3.22;;;;;;;;;;5095754;28;20039;-74
2020/12/30 13:55:57;;;;;;;3.70;2.67;;;;;;;;;;5095542;28;20040;-73
2020/12/30 13:58:22;;;;;;;4.82;2.70;;;;;;;;;;5095783;28;20085;-74
2020/12/30 14:00:48;;;;;;;4.93;3.30;;;;;;;;;;5094831;28;20028;-74
2020/12/30 14:03:13;;;;;;;4.90;3.38;;;;;;;;;;5095687;28;20039;-74
2020/12/30 14:05:38;;;;;;;4.40;2.70;;;;;;;;;;5095546;28;20077;-74
2020/12/30 14:08:04;;;;;;;4.35;2.60;;;;;;;;;;5094585;28;20032;-73
2020/12/30 14:10:30;;;;;;;4.30;2.42;;;;;;;;;;5094304;28;20473;-74
2020/12/30 14:12:55;;;;;;;3.22;2.42;;;;;;;;;;5095381;28;20050;-74
2020/12/30 14:15:20;;;;;;;3.15;2.40;;;;;;;;;;5095330;28;20043;-74
2020/12/30 14:17:46;;;;;;;4.65;2.70;;;;;;;;;;5095356;28;20040;-74
2020/12/30 14:20:11;;;;;;;2.72;2.30;;;;;;;;;;5094442;28;20085;-73
2020/12/30 14:22:38;;;;;;;5.80;2.40;;;;;;;;;;5095110;28;20028;-74
2020/12/30 14:25:04;;;;;;;4.78;2.47;;;;;;;;;;5095227;28;20044;-74
2020/12/30 14:27:32;;;;;;;5.85;2.60;;;;;;;;;;5095303;28;20024;-74
2020/12/30 14:29:57;;;;;;;3.85;2.58;;;;;;;;;;5094784;28;20028;-74
2020/12/30 14:32:22;;;;;;;5.22;2.70;;;;;;;;;;5094034;28;20043;-74
2020/12/30 14:34:48;;;;;;;3.83;2.45;;;;;;;;;;5095033;28;20107;-74
2020/12/30 14:37:13;;;;;;;2.97;2.25;;;;;;;;;;5094921;28;20047;-73